Time;durP1;ratioP1;P1;durP2;ratioP2;P2;SDS_P1;SDS_P2;PMS_P1;PMS_P2;Temp;Humidity;BMP_temperature;BMP_pressure;BME280_temperature;BME280_humidity;BME280_pressure;Samples;Min_cycle;Max_cycle;Signal;HPM_P1;HPM_P2
2021/05/20 00:02:00;;;;;;;;;2.00;2.00;;;;;;;;5056582;28;10486;-82
2021/05/20 00:04:28;;;;;;;;;5.00;2.25;;;;;;;;5039248;28;10800;-84
2021/05/20 00:06:54;;;;;;;;;1.00;1.00;;;;;;;;5059548;28;10703;-83
2021/05/20 00:09:21;;;;;;;;;2.00;1.00;;;;;;;;5057974;28;11492;-79
2021/05/20 00:11:48;;;;;;;;;2.00;2.00;;;;;;;;5059495;28;10609;-79
2021/05/20 00:14:14;;;;;;;;;3.50;3.50;;;;;;;;5058189;28;10866;-79
2021/05/20 00:16:41;;;;;;;;;1.50;1.50;;;;;;;;5057545;28;10930;-81
2021/05/20 00:19:08;;;;;;;;;3.00;1.00;;;;;;;;5062596;28;11709;-82
2021/05/20 00:21:36;;;;;;;;;2.50;2.50;;;;;;;;5060737;28;10769;-82
2021/05/20 00:24:04;;;;;;;;;2.00;2.00;;;;;;;;5053856;28;10807;-82
2021/05/20 00:26:32;;;;;;;;;3.00;2.00;;;;;;;;5059504;28;10908;-83
2021/05/20 00:28:59;;;;;;;;;1.00;1.00;;;;;;;;5060549;28;10844;-83
2021/05/20 00:31:26;;;;;;;;;2.00;2.00;;;;;;;;5055599;28;10718;-83
2021/05/20 00:33:53;;;;;;;;;2.00;2.00;;;;;;;;5057416;28;11035;-83
2021/05/20 00:36:20;;;;;;;;;2.25;2.25;;;;;;;;5058086;28;10787;-83
2021/05/20 00:38:47;;;;;;;;;5.25;3.00;;;;;;;;5053184;28;10842;-83
2021/05/20 00:41:14;;;;;;;;;2.00;2.00;;;;;;;;5060589;28;10773;-83
2021/05/20 00:43:42;;;;;;;;;5.50;3.00;;;;;;;;5055928;28;10918;-83
2021/05/20 00:46:09;;;;;;;;;3.50;3.50;;;;;;;;5077886;28;11021;-82
2021/05/20 00:48:36;;;;;;;;;2.75;2.75;;;;;;;;5060574;28;11025;-82
2021/05/20 00:51:03;;;;;;;;;5.75;3.00;;;;;;;;5058000;28;10905;-80
2021/05/20 00:53:30;;;;;;;;;1.50;1.50;;;;;;;;5060898;28;10993;-82
2021/05/20 00:55:59;;;;;;;;;2.00;2.00;;;;;;;;5056321;28;11134;-82
2021/05/20 00:58:26;;;;;;;;;2.00;2.00;;;;;;;;5047729;28;11003;-81
2021/05/20 01:00:54;;;;;;;;;4.50;2.00;;;;;;;;5056377;28;11166;-81
2021/05/20 01:03:21;;;;;;;;;2.00;2.00;;;;;;;;5066777;28;10989;-83
2021/05/20 01:05:48;;;;;;;;;3.00;1.00;;;;;;;;5062939;28;11214;-82
2021/05/20 01:08:16;;;;;;;;;2.00;2.00;;;;;;;;5057180;28;11007;-81
2021/05/20 01:10:43;;;;;;;;;2.00;2.00;;;;;;;;5047902;28;11091;-82
2021/05/20 01:13:11;;;;;;;;;4.00;3.00;;;;;;;;5065055;28;11164;-82
2021/05/20 01:15:38;;;;;;;;;2.75;2.75;;;;;;;;5064673;28;11229;-81
2021/05/20 01:18:06;;;;;;;;;1.00;1.00;;;;;;;;5045635;28;11102;-83
2021/05/20 01:20:36;;;;;;;;;2.00;1.00;;;;;;;;5081511;28;11215;-82
2021/05/20 01:23:04;;;;;;;;;1.00;1.00;;;;;;;;5064902;28;11258;-83
2021/05/20 01:25:32;;;;;;;;;2.00;2.00;;;;;;;;5064777;28;11796;-82
2021/05/20 01:28:03;;;;;;;;;1.50;1.50;;;;;;;;5059352;28;11459;-82
2021/05/20 01:30:30;;;;;;;;;2.00;2.00;;;;;;;;5054774;28;11216;-82
2021/05/20 01:32:57;;;;;;;;;5.00;2.00;;;;;;;;5053184;28;11399;-83
2021/05/20 01:35:25;;;;;;;;;2.00;1.25;;;;;;;;5056967;28;11248;-82
2021/05/20 01:38:07;;;;;;;;;1.00;1.00;;;;;;;;5048392;28;11425;-82
2021/05/20 01:40:34;;;;;;;;;2.00;2.00;;;;;;;;5063771;28;11132;-82
2021/05/20 01:43:01;;;;;;;;;1.50;1.50;;;;;;;;5065686;28;11458;-83
2021/05/20 01:45:27;;;;;;;;;1.25;1.25;;;;;;;;5063775;28;11569;-83
2021/05/20 01:47:54;;;;;;;;;3.00;3.00;;;;;;;;5061867;28;11521;-83
2021/05/20 01:50:22;;;;;;;;;3.00;3.00;;;;;;;;5059525;28;11587;-81
2021/05/20 01:52:49;;;;;;;;;6.00;2.00;;;;;;;;5040607;28;12143;-82
2021/05/20 01:55:16;;;;;;;;;2.25;2.00;;;;;;;;5060393;28;11406;-82
2021/05/20 01:57:44;;;;;;;;;3.50;2.00;;;;;;;;5059882;28;11447;-83
2021/05/20 02:00:11;;;;;;;;;1.75;1.75;;;;;;;;5031900;28;11367;-81
2021/05/20 02:02:39;;;;;;;;;1.50;1.50;;;;;;;;5061777;28;11423;-82
2021/05/20 02:05:07;;;;;;;;;2.00;2.00;;;;;;;;5043770;28;11458;-83
2021/05/20 02:07:33;;;;;;;;;5.00;5.00;;;;;;;;5062726;28;11437;-83
2021/05/20 02:10:00;;;;;;;;;3.50;3.50;;;;;;;;5065880;28;11440;-84
2021/05/20 02:12:28;;;;;;;;;4.25;2.50;;;;;;;;5048352;28;11460;-82
2021/05/20 02:14:55;;;;;;;;;2.00;2.00;;;;;;;;5053068;28;12855;-83
2021/05/20 02:17:22;;;;;;;;;5.00;5.00;;;;;;;;5057130;28;11523;-83
2021/05/20 02:19:49;;;;;;;;;1.75;1.75;;;;;;;;5051524;28;11428;-83
2021/05/20 02:22:16;;;;;;;;;2.75;2.75;;;;;;;;5058887;28;11439;-82
2021/05/20 02:24:43;;;;;;;;;6.00;4.50;;;;;;;;5057836;28;11432;-84
2021/05/20 02:27:10;;;;;;;;;1.00;1.00;;;;;;;;5060145;28;11381;-84
2021/05/20 02:29:38;;;;;;;;;3.50;2.75;;;;;;;;5065026;28;11463;-84
2021/05/20 02:32:06;;;;;;;;;5.00;5.00;;;;;;;;5074191;28;11053;-83
2021/05/20 02:34:33;;;;;;;;;4.50;3.25;;;;;;;;5065641;28;11561;-82
2021/05/20 02:36:59;;;;;;;;;2.75;2.75;;;;;;;;5053063;28;11453;-83
2021/05/20 02:39:26;;;;;;;;;5.00;5.00;;;;;;;;5072328;28;11450;-83
2021/05/20 02:41:53;;;;;;;;;3.00;3.00;;;;;;;;5058425;28;11474;-83
2021/05/20 02:44:20;;;;;;;;;3.00;3.00;;;;;;;;5055759;28;11542;-85
2021/05/20 02:46:47;;;;;;;;;2.75;2.75;;;;;;;;5049570;28;11414;-82
2021/05/20 02:49:14;;;;;;;;;2.00;2.00;;;;;;;;5034694;28;11615;-81
2021/05/20 02:51:41;;;;;;;;;4.00;4.00;;;;;;;;5056232;28;11464;-82
2021/05/20 02:54:08;;;;;;;;;9.00;5.00;;;;;;;;5048089;28;12769;-83
2021/05/20 02:56:34;;;;;;;;;4.50;4.50;;;;;;;;5062913;28;11582;-83
2021/05/20 02:59:01;;;;;;;;;5.00;5.00;;;;;;;;5064063;28;11667;-82
2021/05/20 03:01:28;;;;;;;;;6.00;6.00;;;;;;;;5068339;28;11379;-82
2021/05/20 03:03:56;;;;;;;;;5.75;5.75;;;;;;;;5064388;28;11571;-83
2021/05/20 03:06:23;;;;;;;;;5.25;5.00;;;;;;;;5054372;28;11424;-82
2021/05/20 03:08:50;;;;;;;;;5.00;5.00;;;;;;;;5062971;28;11433;-82
2021/05/20 03:11:17;;;;;;;;;5.50;5.50;;;;;;;;5063128;28;11541;-82
2021/05/20 03:13:44;;;;;;;;;5.00;5.00;;;;;;;;5060545;28;11591;-83
2021/05/20 03:16:11;;;;;;;;;6.25;5.50;;;;;;;;5046541;28;11600;-83
2021/05/20 03:18:38;;;;;;;;;7.00;5.00;;;;;;;;5054751;28;11460;-83
2021/05/20 03:21:06;;;;;;;;;5.00;5.00;;;;;;;;5058845;28;11444;-82
2021/05/20 03:23:33;;;;;;;;;6.00;5.00;;;;;;;;5066683;28;11371;-83
2021/05/20 03:25:59;;;;;;;;;10.00;8.75;;;;;;;;5052122;28;11177;-83
2021/05/20 03:28:26;;;;;;;;;7.25;7.25;;;;;;;;5060601;28;11247;-82
2021/05/20 03:30:53;;;;;;;;;9.75;7.25;;;;;;;;5053650;28;11269;-82
2021/05/20 03:33:20;;;;;;;;;2.50;2.50;;;;;;;;5062562;28;11642;-81
2021/05/20 03:35:47;;;;;;;;;5.50;5.50;;;;;;;;5058551;28;11153;-82
2021/05/20 03:38:15;;;;;;;;;8.00;6.00;;;;;;;;5062477;28;11263;-83
2021/05/20 03:40:42;;;;;;;;;10.00;10.00;;;;;;;;5061057;28;11084;-82
2021/05/20 03:43:09;;;;;;;;;5.75;5.75;;;;;;;;5047041;28;11221;-82
2021/05/20 03:45:36;;;;;;;;;6.00;6.00;;;;;;;;5062965;28;11092;-81
2021/05/20 03:48:03;;;;;;;;;6.25;6.25;;;;;;;;5059171;28;11076;-82
2021/05/20 03:50:30;;;;;;;;;5.50;5.50;;;;;;;;5057159;28;10998;-83
2021/05/20 03:52:59;;;;;;;;;7.50;7.50;;;;;;;;5063143;28;10967;-82
2021/05/20 03:55:27;;;;;;;;;8.50;8.50;;;;;;;;5057020;28;10976;-81
2021/05/20 03:57:54;;;;;;;;;8.25;6.00;;;;;;;;5065710;28;11037;-82
2021/05/20 04:00:24;;;;;;;;;7.25;7.25;;;;;;;;5056465;28;10833;-83
2021/05/20 04:02:51;;;;;;;;;7.00;7.00;;;;;;;;5039673;28;10788;-83
2021/05/20 04:05:18;;;;;;;;;8.50;8.00;;;;;;;;5060081;28;10918;-82
2021/05/20 04:07:45;;;;;;;;;8.25;7.00;;;;;;;;5050769;28;10788;-83
2021/05/20 04:10:13;;;;;;;;;8.75;6.50;;;;;;;;5063163;28;11466;-83
2021/05/20 04:12:41;;;;;;;;;7.50;7.25;;;;;;;;5063978;28;10666;-83
2021/05/20 04:15:10;;;;;;;;;7.75;6.50;;;;;;;;5058993;28;10950;-81
2021/05/20 04:17:37;;;;;;;;;7.00;7.00;;;;;;;;5047695;28;10869;-86
2021/05/20 04:20:05;;;;;;;;;6.00;6.00;;;;;;;;5056215;28;10925;-76
2021/05/20 04:22:32;;;;;;;;;6.00;6.00;;;;;;;;5058830;28;10709;-76
2021/05/20 04:24:59;;;;;;;;;6.00;5.25;;;;;;;;5060962;28;10691;-77
2021/05/20 04:27:26;;;;;;;;;5.25;5.25;;;;;;;;5018697;28;10703;-76
2021/05/20 04:29:56;;;;;;;;;6.50;6.00;;;;;;;;5056416;28;10724;-76
2021/05/20 04:32:23;;;;;;;;;4.00;4.00;;;;;;;;5058918;28;11248;-76
2021/05/20 04:34:49;;;;;;;;;4.00;4.00;;;;;;;;5041629;28;10613;-77
2021/05/20 04:37:17;;;;;;;;;5.75;4.00;;;;;;;;5059608;28;10702;-77
2021/05/20 04:39:43;;;;;;;;;7.75;6.00;;;;;;;;5055710;28;10838;-77
2021/05/20 04:42:10;;;;;;;;;6.00;6.00;;;;;;;;5061069;28;10807;-78
2021/05/20 04:44:37;;;;;;;;;11.00;7.00;;;;;;;;5053041;28;10701;-77
2021/05/20 04:47:05;;;;;;;;;5.00;5.00;;;;;;;;5073492;28;10706;-78
2021/05/20 04:49:32;;;;;;;;;7.50;6.50;;;;;;;;5062430;28;11426;-77
2021/05/20 04:51:59;;;;;;;;;7.25;6.00;;;;;;;;5058512;28;10806;-78
2021/05/20 04:54:26;;;;;;;;;6.00;4.25;;;;;;;;5042983;28;10766;-77
2021/05/20 04:56:52;;;;;;;;;7.50;6.75;;;;;;;;5061533;28;10629;-83
2021/05/20 04:59:19;;;;;;;;;6.75;3.50;;;;;;;;5063375;28;10704;-82
2021/05/20 05:01:46;;;;;;;;;7.00;7.00;;;;;;;;5056244;28;10577;-82
2021/05/20 05:04:13;;;;;;;;;5.50;5.50;;;;;;;;5054436;28;10800;-76
2021/05/20 05:06:40;;;;;;;;;4.25;3.50;;;;;;;;5059218;28;10671;-76
2021/05/20 05:09:07;;;;;;;;;11.75;8.75;;;;;;;;5059572;28;10479;-77
2021/05/20 05:11:34;;;;;;;;;5.50;5.50;;;;;;;;5058714;28;10646;-78
2021/05/20 05:14:01;;;;;;;;;6.25;6.25;;;;;;;;5057820;28;10674;-77
2021/05/20 05:16:28;;;;;;;;;7.75;7.00;;;;;;;;5040199;28;10718;-78
2021/05/20 05:18:55;;;;;;;;;6.25;6.25;;;;;;;;5055922;28;10513;-81
2021/05/20 05:21:23;;;;;;;;;9.75;8.25;;;;;;;;5060634;28;10612;-76
2021/05/20 05:23:50;;;;;;;;;8.50;7.00;;;;;;;;5057204;28;10655;-78
2021/05/20 05:26:16;;;;;;;;;13.75;11.75;;;;;;;;5057246;28;10613;-79
2021/05/20 05:28:43;;;;;;;;;8.00;8.00;;;;;;;;5058846;28;10654;-78
2021/05/20 05:31:12;;;;;;;;;9.75;9.75;;;;;;;;5054027;28;10647;-74
2021/05/20 05:33:39;;;;;;;;;16.00;14.00;;;;;;;;5061962;28;10758;-77
2021/05/20 05:36:07;;;;;;;;;16.25;15.50;;;;;;;;5056999;28;10861;-75
2021/05/20 05:38:35;;;;;;;;;22.75;17.75;;;;;;;;5045030;28;10913;-76
2021/05/20 05:41:03;;;;;;;;;19.75;17.25;;;;;;;;5078116;28;10799;-75
2021/05/20 05:43:30;;;;;;;;;19.25;16.50;;;;;;;;5065002;28;11177;-75
2021/05/20 05:45:57;;;;;;;;;16.50;14.25;;;;;;;;5062787;28;10961;-74
2021/05/20 05:48:24;;;;;;;;;17.00;15.75;;;;;;;;5069121;28;10974;-75
2021/05/20 05:50:53;;;;;;;;;16.00;13.50;;;;;;;;5064886;28;11760;-74
2021/05/20 05:53:20;;;;;;;;;13.50;11.00;;;;;;;;5063688;28;10975;-75
2021/05/20 05:55:48;;;;;;;;;12.00;10.25;;;;;;;;5060538;28;10937;-74
2021/05/20 05:58:15;;;;;;;;;16.25;16.00;;;;;;;;5062001;28;10957;-75
2021/05/20 06:00:42;;;;;;;;;17.00;15.75;;;;;;;;5061815;28;10976;-76
2021/05/20 06:03:09;;;;;;;;;15.50;15.50;;;;;;;;5053267;28;11221;-74
2021/05/20 06:05:36;;;;;;;;;16.50;15.25;;;;;;;;5035854;28;11211;-75
2021/05/20 06:08:02;;;;;;;;;16.50;16.00;;;;;;;;5060384;28;11023;-73
2021/05/20 06:10:30;;;;;;;;;15.75;14.25;;;;;;;;5059094;28;11127;-73
2021/05/20 06:12:59;;;;;;;;;21.50;17.00;;;;;;;;5061750;28;11892;-74
2021/05/20 06:15:27;;;;;;;;;25.25;18.25;;;;;;;;5060534;28;11220;-73
2021/05/20 06:17:54;;;;;;;;;16.25;16.25;;;;;;;;5057789;28;11195;-73
2021/05/20 06:20:21;;;;;;;;;21.75;19.75;;;;;;;;5061254;28;11046;-73
2021/05/20 06:22:48;;;;;;;;;20.50;18.50;;;;;;;;5063713;28;11125;-73
2021/05/20 06:25:15;;;;;;;;;22.25;20.25;;;;;;;;5063532;28;11188;-73
2021/05/20 06:27:42;;;;;;;;;17.75;17.50;;;;;;;;5063706;28;11176;-74
2021/05/20 06:30:11;;;;;;;;;24.75;22.75;;;;;;;;5058208;28;10921;-73
2021/05/20 06:32:38;;;;;;;;;22.00;20.25;;;;;;;;5063136;28;11149;-73
2021/05/20 06:35:06;;;;;;;;;22.25;20.75;;;;;;;;5062781;28;10935;-74
2021/05/20 06:37:33;;;;;;;;;21.50;21.25;;;;;;;;5059563;28;12372;-74
2021/05/20 06:40:00;;;;;;;;;24.25;22.50;;;;;;;;5055744;28;11193;-75
2021/05/20 06:42:27;;;;;;;;;28.50;28.50;;;;;;;;5063097;28;10970;-74
2021/05/20 06:44:54;;;;;;;;;26.75;26.50;;;;;;;;5056518;28;12017;-74
2021/05/20 06:47:21;;;;;;;;;24.50;22.25;;;;;;;;5052392;28;11042;-75
2021/05/20 06:49:48;;;;;;;;;27.00;22.50;;;;;;;;5047925;28;10877;-75
2021/05/20 06:52:15;;;;;;;;;22.50;22.50;;;;;;;;5058108;28;11198;-75
2021/05/20 06:54:42;;;;;;;;;28.25;26.00;;;;;;;;5060407;28;10974;-74
2021/05/20 06:57:18;;;;;;;;;23.75;23.75;;;;;;;;5064602;28;10982;-73
2021/05/20 06:59:57;;;;;;;;;25.25;24.00;;;;;;;;5061769;28;10971;-74
2021/05/20 07:02:25;;;;;;;;;24.00;24.00;;;;;;;;5061148;28;11858;-73
2021/05/20 07:04:53;;;;;;;;;23.25;22.00;;;;;;;;5060817;28;10859;-72
2021/05/20 07:07:19;;;;;;;;;20.25;17.00;;;;;;;;5062772;28;10839;-73
2021/05/20 07:09:47;;;;;;;;;16.50;16.00;;;;;;;;5061328;28;10663;-73
2021/05/20 07:12:15;;;;;;;;;17.00;14.50;;;;;;;;5062456;28;10687;-73
2021/05/20 07:14:43;;;;;;;;;16.00;14.00;;;;;;;;5062808;28;11406;-73
2021/05/20 07:17:10;;;;;;;;;17.25;16.00;;;;;;;;5062983;28;10812;-73
2021/05/20 07:19:38;;;;;;;;;18.00;13.50;;;;;;;;5062577;28;10717;-72
2021/05/20 07:22:05;;;;;;;;;17.25;14.25;;;;;;;;5063575;28;10587;-73
2021/05/20 07:24:32;;;;;;;;;18.25;17.25;;;;;;;;5061356;28;10713;-72
2021/05/20 07:26:59;;;;;;;;;16.00;15.25;;;;;;;;5062329;28;10680;-73
2021/05/20 07:29:26;;;;;;;;;12.75;10.50;;;;;;;;5043866;28;10657;-73
2021/05/20 07:31:53;;;;;;;;;17.50;14.75;;;;;;;;5062815;28;10724;-73
2021/05/20 07:34:20;;;;;;;;;20.25;17.00;;;;;;;;5062838;28;10511;-74
2021/05/20 07:36:48;;;;;;;;;20.75;18.50;;;;;;;;5056127;28;10418;-73
2021/05/20 07:39:15;;;;;;;;;20.25;18.50;;;;;;;;5057439;28;10607;-74
2021/05/20 07:41:44;;;;;;;;;16.75;16.75;;;;;;;;5029795;28;10339;-73
2021/05/20 07:44:11;;;;;;;;;19.50;18.50;;;;;;;;5061944;28;10429;-74
2021/05/20 07:46:38;;;;;;;;;16.75;14.75;;;;;;;;5054383;28;10364;-73
2021/05/20 07:49:05;;;;;;;;;18.50;15.00;;;;;;;;5053076;28;10252;-74
2021/05/20 07:51:32;;;;;;;;;17.75;16.00;;;;;;;;5060167;28;10372;-73
2021/05/20 07:54:00;;;;;;;;;15.25;13.75;;;;;;;;5056170;28;10103;-73
2021/05/20 07:56:26;;;;;;;;;15.50;14.00;;;;;;;;5057360;28;10091;-73
2021/05/20 07:58:54;;;;;;;;;13.75;10.75;;;;;;;;5050806;28;10238;-73
2021/05/20 08:01:21;;;;;;;;;12.50;10.50;;;;;;;;5059481;28;10005;-75
2021/05/20 08:03:50;;;;;;;;;11.75;10.50;;;;;;;;5041104;28;9958;-74
2021/05/20 08:06:20;;;;;;;;;8.25;8.25;;;;;;;;5062000;28;10052;-73
2021/05/20 08:08:52;;;;;;;;;7.25;7.25;;;;;;;;5059909;28;10724;-72
2021/05/20 08:11:21;;;;;;;;;9.00;9.00;;;;;;;;5055592;28;9791;-71
2021/05/20 08:13:48;;;;;;;;;11.25;10.00;;;;;;;;5059234;28;9673;-79
2021/05/20 08:16:15;;;;;;;;;10.25;10.25;;;;;;;;5055335;28;9718;-74
2021/05/20 08:18:43;;;;;;;;;8.25;8.25;;;;;;;;5060854;28;9652;-75
2021/05/20 08:21:10;;;;;;;;;9.75;9.75;;;;;;;;5061592;28;10899;-75
2021/05/20 08:23:37;;;;;;;;;9.50;9.50;;;;;;;;5059727;28;9471;-75
2021/05/20 08:26:07;;;;;;;;;7.33;7.33;;;;;;;;5059925;28;9499;-75
2021/05/20 08:28:35;;;;;;;;;9.00;9.00;;;;;;;;5043017;28;9423;-73
2021/05/20 08:31:02;;;;;;;;;12.00;10.33;;;;;;;;5058029;28;9206;-75
2021/05/20 08:33:29;;;;;;;;;11.67;10.00;;;;;;;;5061365;28;10060;-73
2021/05/20 08:35:56;;;;;;;;;10.33;7.33;;;;;;;;5057423;28;9272;-76
2021/05/20 08:38:23;;;;;;;;;9.67;8.00;;;;;;;;5060783;28;9098;-75
2021/05/20 08:40:49;;;;;;;;;6.00;6.00;;;;;;;;5060560;28;9208;-76
2021/05/20 08:43:16;;;;;;;;;5.00;5.00;;;;;;;;5042687;28;8942;-75
2021/05/20 08:45:47;;;;;;;;;6.75;5.00;;;;;;;;5061291;28;8849;-75
2021/05/20 08:48:14;;;;;;;;;5.75;5.75;;;;;;;;5062961;28;8876;-76
2021/05/20 08:50:43;;;;;;;;;6.75;6.75;;;;;;;;5060719;28;8856;-74
2021/05/20 08:53:10;;;;;;;;;3.25;3.25;;;;;;;;5053122;28;8875;-73
2021/05/20 08:55:37;;;;;;;;;5.25;5.00;;;;;;;;5057811;28;8859;-74
2021/05/20 08:58:08;;;;;;;;;4.00;3.00;;;;;;;;5061581;28;8967;-74
2021/05/20 09:00:35;;;;;;;;;5.00;5.00;;;;;;;;5058304;28;8927;-74
2021/05/20 09:03:08;;;;;;;;;4.50;4.50;;;;;;;;5061137;28;8872;-74
2021/05/20 09:05:35;;;;;;;;;4.00;4.00;;;;;;;;5052667;28;8879;-74
2021/05/20 09:08:05;;;;;;;;;6.00;2.75;;;;;;;;5064955;28;8860;-74
2021/05/20 09:10:33;;;;;;;;;3.00;2.50;;;;;;;;5047424;28;8849;-74
2021/05/20 09:13:02;;;;;;;;;4.25;2.75;;;;;;;;5061128;28;9028;-74
2021/05/20 09:15:30;;;;;;;;;2.75;2.75;;;;;;;;5061823;28;8872;-74
2021/05/20 09:18:12;;;;;;;;;3.25;3.25;;;;;;;;5064695;28;8892;-74
2021/05/20 09:20:40;;;;;;;;;3.00;3.00;;;;;;;;5065467;28;8979;-74
2021/05/20 09:23:10;;;;;;;;;2.00;2.00;;;;;;;;5064222;28;8949;-74
2021/05/20 09:25:38;;;;;;;;;2.50;1.50;;;;;;;;5063950;28;8953;-74
2021/05/20 09:28:06;;;;;;;;;1.00;1.00;;;;;;;;5066088;28;8849;-74
2021/05/20 09:30:34;;;;;;;;;1.00;1.00;;;;;;;;5064065;28;8795;-74
2021/05/20 09:33:06;;;;;;;;;2.50;1.00;;;;;;;;5057869;28;8873;-74
2021/05/20 09:35:34;;;;;;;;;1.00;1.00;;;;;;;;5053210;28;9431;-74
2021/05/20 09:38:04;;;;;;;;;1.00;1.00;;;;;;;;5065415;28;8860;-74
2021/05/20 09:40:34;;;;;;;;;0.75;0.75;;;;;;;;5064666;28;8884;-74
2021/05/20 09:43:01;;;;;;;;;0.00;0.00;;;;;;;;5064569;28;8982;-74
2021/05/20 09:45:29;;;;;;;;;1.00;0.00;;;;;;;;5064467;28;8910;-74
2021/05/20 09:48:07;;;;;;;;;0.00;0.00;;;;;;;;5066214;28;8868;-74
2021/05/20 09:50:41;;;;;;;;;0.00;0.00;;;;;;;;5065031;28;8880;-73
2021/05/20 09:53:10;;;;;;;;;0.00;0.00;;;;;;;;5064201;28;8880;-74
2021/05/20 09:55:37;;;;;;;;;0.50;0.50;;;;;;;;5060843;28;8951;-73
2021/05/20 09:58:09;;;;;;;;;0.75;0.75;;;;;;;;5064508;28;8856;-74
2021/05/20 10:00:37;;;;;;;;;1.25;1.25;;;;;;;;5050861;28;8841;-74
2021/05/20 10:03:07;;;;;;;;;1.50;1.00;;;;;;;;5052104;28;8864;-74
2021/05/20 10:05:36;;;;;;;;;2.75;2.75;;;;;;;;5062114;28;8875;-74
2021/05/20 10:08:06;;;;;;;;;2.00;2.00;;;;;;;;5062612;28;8990;-74
2021/05/20 10:10:36;;;;;;;;;4.25;2.50;;;;;;;;5060333;28;8965;-74
2021/05/20 10:13:04;;;;;;;;;3.00;3.00;;;;;;;;5060835;28;8874;-73
2021/05/20 10:15:33;;;;;;;;;2.00;2.00;;;;;;;;5060070;28;8875;-74
2021/05/20 10:18:04;;;;;;;;;2.00;2.00;;;;;;;;5063348;28;8888;-74
2021/05/20 10:20:31;;;;;;;;;1.25;1.25;;;;;;;;5050841;28;8975;-73
2021/05/20 10:23:00;;;;;;;;;1.75;1.75;;;;;;;;5063646;28;9002;-74
2021/05/20 10:25:27;;;;;;;;;2.00;2.00;;;;;;;;5064123;28;8860;-73
2021/05/20 10:27:55;;;;;;;;;1.75;1.75;;;;;;;;5059416;28;8913;-74
2021/05/20 10:30:25;;;;;;;;;1.25;1.25;;;;;;;;5054167;28;8963;-73
2021/05/20 10:32:56;;;;;;;;;2.00;1.00;;;;;;;;5051862;28;8862;-73
2021/05/20 10:35:23;;;;;;;;;1.25;1.00;;;;;;;;5057496;28;8949;-73
2021/05/20 10:37:58;;;;;;;;;1.50;1.50;;;;;;;;5065415;28;8888;-73
2021/05/20 10:40:32;;;;;;;;;1.00;1.00;;;;;;;;5070150;28;8860;-74
2021/05/20 10:43:13;;;;;;;;;0.50;0.50;;;;;;;;5059624;28;8913;-74
2021/05/20 10:45:42;;;;;;;;;1.00;1.00;;;;;;;;5059218;28;8844;-74
2021/05/20 10:48:27;;;;;;;;;0.50;0.50;;;;;;;;5061095;28;8904;-73
2021/05/20 10:51:16;;;;;;;;;1.75;1.00;;;;;;;;5011866;28;8988;-73
2021/05/20 10:54:06;;;;;;;;;0.75;0.75;;;;;;;;5013218;28;8878;-73
2021/05/20 10:56:54;;;;;;;;;0.00;0.00;;;;;;;;5019277;28;8894;-74
2021/05/20 10:59:42;;;;;;;;;0.75;0.75;;;;;;;;5015350;28;8917;-74
2021/05/20 11:02:53;;;;;;;;;1.00;1.00;;;;;;;;5011160;28;8852;-72
2021/05/20 11:05:52;;;;;;;;;0.25;0.25;;;;;;;;4954913;28;8918;-74
2021/05/20 11:08:55;;;;;;;;;1.00;1.00;;;;;;;;4952730;28;8933;-73
2021/05/20 11:11:49;;;;;;;;;1.00;1.00;;;;;;;;4986541;28;8879;-73
2021/05/20 11:14:51;;;;;;;;;1.00;1.00;;;;;;;;5015745;28;8890;-74
2021/05/20 11:17:48;;;;;;;;;1.75;1.75;;;;;;;;4990431;28;8878;-75
2021/05/20 11:20:44;;;;;;;;;1.00;1.00;;;;;;;;4910039;28;8879;-73
2021/05/20 11:23:37;;;;;;;;;0.00;0.00;;;;;;;;5008852;28;8867;-73
2021/05/20 11:26:27;;;;;;;;;1.00;1.00;;;;;;;;5019433;28;8872;-74
2021/05/20 11:29:09;;;;;;;;;2.25;0.75;;;;;;;;5010015;28;8985;-73
2021/05/20 11:31:38;;;;;;;;;1.00;1.00;;;;;;;;5013967;28;8925;-73
2021/05/20 11:36:49;;;;;;;;;2.00;1.00;;;;;;;;5017580;28;9635;-73
2021/05/20 11:39:18;;;;;;;;;1.75;1.75;;;;;;;;5034319;28;8894;-74
2021/05/20 11:41:46;;;;;;;;;1.00;1.00;;;;;;;;5012253;28;8875;-73
2021/05/20 11:44:15;;;;;;;;;1.25;1.25;;;;;;;;5019049;28;8860;-75
2021/05/20 11:46:46;;;;;;;;;1.25;1.25;;;;;;;;5014967;28;8889;-74
2021/05/20 11:49:21;;;;;;;;;1.00;0.00;;;;;;;;5032794;28;8883;-74
2021/05/20 11:51:55;;;;;;;;;0.00;0.00;;;;;;;;5055552;28;8848;-73
2021/05/20 11:54:24;;;;;;;;;1.00;1.00;;;;;;;;5045146;28;8976;-74
2021/05/20 11:56:52;;;;;;;;;2.00;2.00;;;;;;;;5043829;28;8899;-74
2021/05/20 11:59:43;;;;;;;;;1.00;1.00;;;;;;;;5056280;28;9420;-77
2021/05/20 12:02:13;;;;;;;;;1.25;1.00;;;;;;;;5050240;28;8855;-75
2021/05/20 12:04:40;;;;;;;;;1.00;1.00;;;;;;;;5073064;28;8954;-75
2021/05/20 12:07:07;;;;;;;;;1.00;1.00;;;;;;;;5025292;28;8872;-77
2021/05/20 12:09:35;;;;;;;;;2.75;1.00;;;;;;;;5061131;28;8999;-75
2021/05/20 12:12:09;;;;;;;;;0.00;0.00;;;;;;;;5059671;28;8876;-75
2021/05/20 12:14:36;;;;;;;;;1.00;1.00;;;;;;;;5059316;28;8852;-75
2021/05/20 12:17:21;;;;;;;;;1.00;1.00;;;;;;;;5060042;28;8895;-75
2021/05/20 12:19:49;;;;;;;;;2.00;0.00;;;;;;;;5060462;28;8871;-75
2021/05/20 12:22:21;;;;;;;;;1.00;1.00;;;;;;;;5061980;28;8929;-75
2021/05/20 12:24:50;;;;;;;;;1.00;1.00;;;;;;;;5057721;28;9756;-74
2021/05/20 12:27:20;;;;;;;;;1.00;1.00;;;;;;;;5062266;28;8866;-77
2021/05/20 12:29:48;;;;;;;;;1.00;1.00;;;;;;;;5057769;28;8872;-75
2021/05/20 12:32:32;;;;;;;;;1.75;1.00;;;;;;;;5060023;28;9552;-75
2021/05/20 12:35:10;;;;;;;;;1.00;1.00;;;;;;;;5060008;28;8833;-75
2021/05/20 12:37:45;;;;;;;;;1.25;1.25;;;;;;;;5059695;28;8862;-75
2021/05/20 12:40:18;;;;;;;;;2.00;2.00;;;;;;;;5059928;28;8861;-75
2021/05/20 12:42:52;;;;;;;;;1.00;1.00;;;;;;;;5060602;28;8945;-74
2021/05/20 12:45:28;;;;;;;;;1.00;1.00;;;;;;;;5064187;28;8864;-74
2021/05/20 12:47:56;;;;;;;;;1.00;1.00;;;;;;;;5065758;28;8883;-74
2021/05/20 12:50:27;;;;;;;;;0.75;0.75;;;;;;;;5058701;28;8869;-75
2021/05/20 12:52:55;;;;;;;;;1.50;1.50;;;;;;;;5062916;28;8880;-76
2021/05/20 12:55:34;;;;;;;;;3.50;1.00;;;;;;;;5064413;28;8880;-75
2021/05/20 12:58:02;;;;;;;;;1.00;1.00;;;;;;;;5061249;28;8856;-73
2021/05/20 13:00:56;;;;;;;;;1.00;1.00;;;;;;;;5054532;28;8874;-75
2021/05/20 13:03:26;;;;;;;;;1.00;1.00;;;;;;;;5055523;28;8996;-74
2021/05/20 13:05:56;;;;;;;;;1.00;1.00;;;;;;;;5063776;28;8833;-75
2021/05/20 13:08:25;;;;;;;;;1.00;1.00;;;;;;;;5059685;28;8871;-75
2021/05/20 13:10:52;;;;;;;;;2.25;1.00;;;;;;;;5053754;28;8868;-74
2021/05/20 13:13:35;;;;;;;;;2.50;1.00;;;;;;;;5054626;28;8876;-76
2021/05/20 13:16:15;;;;;;;;;1.50;1.00;;;;;;;;5072966;28;9701;-75
2021/05/20 13:24:22;;;;;;;;;0.00;0.00;;;;;;;;5061190;28;8856;-75
2021/05/20 13:26:49;;;;;;;;;1.00;1.00;;;;;;;;5060122;28;8872;-75
2021/05/20 13:29:17;;;;;;;;;1.00;1.00;;;;;;;;5037275;28;8864;-75
2021/05/20 13:31:45;;;;;;;;;1.25;1.25;;;;;;;;5055373;28;8809;-74
2021/05/20 13:34:14;;;;;;;;;3.75;1.25;;;;;;;;5050481;28;8870;-74
2021/05/20 13:36:44;;;;;;;;;1.00;1.00;;;;;;;;5055791;28;8908;-74
2021/05/20 13:39:10;;;;;;;;;2.00;2.00;;;;;;;;5059332;28;8858;-74
2021/05/20 13:41:37;;;;;;;;;1.00;1.00;;;;;;;;5063505;28;8956;-74
2021/05/20 13:44:06;;;;;;;;;1.00;1.00;;;;;;;;5041519;28;8854;-74
2021/05/20 13:46:33;;;;;;;;;1.75;1.00;;;;;;;;5069428;28;8862;-74
2021/05/20 13:48:59;;;;;;;;;2.00;1.50;;;;;;;;5065534;28;8864;-74
2021/05/20 13:51:27;;;;;;;;;1.00;1.00;;;;;;;;5046643;28;8884;-74
2021/05/20 13:54:00;;;;;;;;;2.50;1.00;;;;;;;;5064848;28;8856;-75
2021/05/20 13:56:26;;;;;;;;;2.50;1.00;;;;;;;;5063290;28;8872;-75
2021/05/20 13:58:53;;;;;;;;;1.00;1.00;;;;;;;;5064767;28;8876;-74
2021/05/20 14:01:27;;;;;;;;;4.50;1.25;;;;;;;;5058314;28;9614;-75
2021/05/20 14:04:03;;;;;;;;;1.00;0.00;;;;;;;;5060373;28;8880;-74
2021/05/20 14:06:31;;;;;;;;;1.00;1.00;;;;;;;;5055668;28;8954;-75
2021/05/20 14:08:58;;;;;;;;;1.00;1.00;;;;;;;;5059253;28;8874;-75
2021/05/20 14:11:26;;;;;;;;;1.00;1.00;;;;;;;;5060145;28;8864;-75
2021/05/20 14:13:53;;;;;;;;;2.00;1.00;;;;;;;;5055082;28;8998;-75
2021/05/20 14:16:19;;;;;;;;;0.00;0.00;;;;;;;;5036340;28;8886;-75
2021/05/20 14:18:46;;;;;;;;;1.25;1.25;;;;;;;;5060119;28;8858;-75
2021/05/20 14:21:20;;;;;;;;;0.00;0.00;;;;;;;;5057831;28;8994;-77
2021/05/20 14:23:48;;;;;;;;;0.00;0.00;;;;;;;;5058821;28;8957;-75
2021/05/20 14:26:15;;;;;;;;;0.50;0.00;;;;;;;;5059123;28;8876;-75
2021/05/20 14:28:42;;;;;;;;;1.00;1.00;;;;;;;;5053541;28;8876;-75
2021/05/20 14:31:09;;;;;;;;;0.75;0.75;;;;;;;;5041505;28;8844;-76
2021/05/20 14:33:36;;;;;;;;;1.00;1.00;;;;;;;;5061654;28;8978;-75
2021/05/20 14:36:05;;;;;;;;;0.25;0.25;;;;;;;;5060697;28;8876;-75
2021/05/20 14:38:32;;;;;;;;;0.00;0.00;;;;;;;;5058801;28;8858;-75
2021/05/20 14:41:00;;;;;;;;;1.00;1.00;;;;;;;;5043918;28;8864;-75
2021/05/20 14:43:28;;;;;;;;;1.00;1.00;;;;;;;;5063933;28;8880;-74
2021/05/20 14:45:54;;;;;;;;;1.50;1.50;;;;;;;;5064336;28;8922;-76
2021/05/20 14:48:21;;;;;;;;;1.00;1.00;;;;;;;;5069665;28;8918;-75
2021/05/20 14:50:56;;;;;;;;;1.25;1.25;;;;;;;;5062117;28;9014;-75
2021/05/20 14:53:26;;;;;;;;;2.50;2.50;;;;;;;;5051971;28;8839;-74
2021/05/20 14:56:00;;;;;;;;;2.50;2.50;;;;;;;;5049491;28;8981;-76
2021/05/20 15:06:51;;;;;;;;;0.00;0.00;;;;;;;;5020035;28;8871;-75
2021/05/20 15:09:26;;;;;;;;;1.00;1.00;;;;;;;;5061927;28;8887;-76
2021/05/20 15:11:59;;;;;;;;;0.75;0.75;;;;;;;;5061772;28;8860;-75
2021/05/20 15:14:31;;;;;;;;;2.00;1.50;;;;;;;;5058209;28;8856;-76